Terminal Aerodrome Forecast
Issued by NWS Cleveland, OH

Home | Current Version | Previous Version | Graphics & Text | Print | Product List | Glossary On
Versions: 1 2 3 4 5 6 7 8 9 10 11 12 13 14 15 16 17 18 19 20 21 22 23 24 25 26 27 28 29 30 31 32 33 34 35
161
FTUS41 KCLE 262334
TAFCLE
TAF
KCLE 262334Z 2700/2806 19010KT P6SM VCSH SCT040 BKN150
      TEMPO 2702/2706 2SM -TSRA BKN015CB
     FM270600 20005KT 4SM BR OVC010
     FM271400 22006KT P6SM OVC015
     FM271800 23008KT P6SM BKN025
     FM272100 23006KT P6SM BKN050 OVC150=

USA.gov is the U.S. government's official web portal to all federal, state and local government web resources and services.